createdAt,value
2022-09-05T00:00:19.761Z,20.94
2022-09-05T00:02:55.686Z,20.93
2022-09-05T00:05:41.298Z,20.86
2022-09-05T00:08:30.862Z,20.46
2022-09-05T00:11:39.767Z,20.56
2022-09-05T00:14:34.347Z,20.79
2022-09-05T00:17:21.128Z,20.75
2022-09-05T00:24:19.005Z,20.73
2022-09-05T00:24:32.906Z,20.07
2022-09-05T00:26:03.559Z,20.45
2022-09-05T00:28:40.631Z,20.30
2022-09-05T00:31:54.937Z,20.45
2022-09-05T00:34:22.337Z,20.50
2022-09-05T00:36:55.078Z,20.50
2022-09-05T00:39:25.903Z,20.44
2022-09-05T00:41:57.030Z,19.97
2022-09-05T00:44:27.076Z,20.35
2022-09-05T00:47:01.487Z,20.42
2022-09-05T00:49:36.438Z,20.37
2022-09-05T00:52:07.382Z,20.36
2022-09-05T00:55:00.541Z,19.82
2022-09-05T00:57:46.874Z,19.43
2022-09-05T01:00:18.145Z,20.11
2022-09-05T01:03:17.950Z,19.67
2022-09-05T01:06:13.953Z,20.12
2022-09-05T01:09:07.671Z,19.84
2022-09-05T01:11:45.372Z,20.12
2022-09-05T01:14:27.458Z,19.43
2022-09-05T01:17:22.403Z,19.32
2022-09-05T01:20:18.958Z,19.82
2022-09-05T01:23:19.812Z,19.15
2022-09-05T01:26:18.858Z,19.45
2022-09-05T01:29:16.678Z,19.04
2022-09-05T01:32:01.670Z,19.20
2022-09-05T01:34:39.362Z,19.00
2022-09-05T01:37:32.972Z,19.50
2022-09-05T01:40:16.839Z,18.88
2022-09-05T01:42:55.984Z,19.69
2022-09-05T01:45:39.232Z,18.67
2022-09-05T01:48:11.907Z,19.62
2022-09-05T01:50:48.396Z,19.47
2022-09-05T01:53:26.253Z,18.88
2022-09-05T01:56:11.662Z,19.56
2022-09-05T01:58:54.586Z,19.50
2022-09-05T02:01:35.835Z,18.53
2022-09-05T02:04:29.641Z,19.18
2022-09-05T02:07:29.908Z,19.23
2022-09-05T02:10:11.937Z,18.66
2022-09-05T02:13:01.850Z,19.24
2022-09-05T02:15:59.509Z,19.29
2022-09-05T02:18:49.182Z,19.12
2022-09-05T02:21:25.557Z,19.21
2022-09-05T02:24:02.689Z,18.75
2022-09-05T02:26:34.673Z,19.01
2022-09-05T02:29:11.395Z,19.17
2022-09-05T02:31:46.929Z,19.03
2022-09-05T02:34:21.778Z,18.96
2022-09-05T02:36:55.202Z,18.99
2022-09-05T02:45:01.378Z,18.99
2022-09-05T02:45:12.666Z,19.01
2022-09-05T02:45:28.268Z,18.63
2022-09-05T02:48:04.184Z,18.87
2022-09-05T02:52:57.949Z,18.46
2022-09-05T02:57:40.980Z,17.89
2022-09-05T02:58:04.907Z,18.66
2022-09-05T03:00:03.149Z,18.32
2022-09-05T03:02:37.173Z,18.56
2022-09-05T03:05:11.882Z,18.43
2022-09-05T03:08:07.902Z,18.11
2022-09-05T03:11:16.682Z,18.12
2022-09-05T03:14:24.547Z,18.06
2022-09-05T03:17:21.508Z,18.57
2022-09-05T03:20:25.147Z,17.97
2022-09-05T03:23:24.195Z,18.46
2022-09-05T03:26:42.696Z,18.48
2022-09-05T03:29:41.696Z,18.19
2022-09-05T03:32:51.735Z,18.31
2022-09-05T03:35:54.888Z,18.42
2022-09-05T03:39:14.993Z,17.89
2022-09-05T03:42:14.939Z,17.79
2022-09-05T03:44:57.366Z,18.06
2022-09-05T03:48:02.280Z,18.33
2022-09-05T03:55:42.709Z,18.14
2022-09-05T03:57:17.335Z,17.78
2022-09-05T03:57:38.501Z,17.45
2022-09-05T04:00:18.079Z,17.66
2022-09-05T04:07:08.711Z,17.76
2022-09-05T04:08:27.565Z,17.97
2022-09-05T04:08:46.388Z,18.26
2022-09-05T04:11:16.730Z,17.95
2022-09-05T04:13:49.315Z,18.22
2022-09-05T04:16:21.381Z,17.63
2022-09-05T04:18:53.027Z,18.06
2022-09-05T04:21:25.563Z,17.81
2022-09-05T04:24:02.781Z,17.75
2022-09-05T04:26:56.334Z,17.66
2022-09-05T04:29:33.199Z,18.12
2022-09-05T04:32:17.966Z,17.98
2022-09-05T04:34:59.756Z,17.93
2022-09-05T04:37:48.189Z,17.86
2022-09-05T04:40:35.649Z,17.37
2022-09-05T04:43:06.643Z,17.39
2022-09-05T04:45:41.984Z,18.00
2022-09-05T04:48:15.826Z,17.65
2022-09-05T04:51:03.086Z,17.98
2022-09-05T04:53:39.483Z,17.85
2022-09-05T04:56:12.435Z,17.62
2022-09-05T04:59:32.727Z,17.95
2022-09-05T05:06:12.240Z,17.81
2022-09-05T05:06:17.342Z,17.90
2022-09-05T05:07:21.126Z,17.87
2022-09-05T05:10:19.489Z,17.87
2022-09-05T05:17:54.817Z,17.01
2022-09-05T05:18:11.489Z,17.83
2022-09-05T05:18:55.995Z,17.47
2022-09-05T05:21:33.289Z,17.47
2022-09-05T05:24:09.386Z,17.17
2022-09-05T05:26:49.459Z,17.77
2022-09-05T05:29:27.192Z,17.29
2022-09-05T05:31:56.824Z,17.59
2022-09-05T05:34:26.235Z,17.68
2022-09-05T05:37:00.774Z,17.76
2022-09-05T05:39:29.481Z,17.62
2022-09-05T05:41:58.153Z,17.60
2022-09-05T05:44:27.994Z,17.23
2022-09-05T05:47:00.112Z,17.21
2022-09-05T05:49:45.506Z,17.70
2022-09-05T05:52:42.646Z,17.59
2022-09-05T05:55:52.298Z,17.73
2022-09-05T05:58:32.998Z,17.23
2022-09-05T06:01:44.158Z,17.23
2022-09-05T06:04:44.719Z,17.71
2022-09-05T06:07:22.643Z,17.87
2022-09-05T06:14:48.846Z,17.93
2022-09-05T06:15:02.193Z,17.32
2022-09-05T06:16:58.324Z,17.97
2022-09-05T06:21:18.165Z,18.05
2022-09-05T06:23:08.315Z,18.14
2022-09-05T06:26:18.508Z,17.98
2022-09-05T06:29:00.568Z,18.30
2022-09-05T06:31:48.045Z,17.30
2022-09-05T06:34:35.845Z,17.41
2022-09-05T06:37:13.252Z,18.55
2022-09-05T06:40:00.694Z,18.41
2022-09-05T06:42:42.948Z,18.57
2022-09-05T06:45:38.147Z,18.38
2022-09-05T06:48:24.952Z,18.53
2022-09-05T06:52:11.724Z,18.83
2022-09-05T06:55:12.557Z,19.05
2022-09-05T06:58:15.420Z,19.15
2022-09-05T07:00:46.671Z,19.01
2022-09-05T07:03:26.721Z,19.32
2022-09-05T07:05:58.689Z,19.24
2022-09-05T07:08:34.827Z,19.37
2022-09-05T07:11:15.009Z,19.43
2022-09-05T07:13:58.182Z,19.21
2022-09-05T07:16:38.917Z,19.67
2022-09-05T07:19:19.228Z,19.69
2022-09-05T07:22:00.714Z,19.39
2022-09-05T07:24:54.037Z,19.90
2022-09-05T07:27:28.873Z,20.05
2022-09-05T07:30:01.086Z,19.60
2022-09-05T07:32:31.501Z,20.28
2022-09-05T07:35:02.744Z,20.11
2022-09-05T07:37:36.946Z,20.28
2022-09-05T07:40:26.327Z,20.52
2022-09-05T07:43:08.695Z,20.22
2022-09-05T07:45:50.832Z,19.92
2022-09-05T07:48:34.221Z,20.70
2022-09-05T07:56:46.407Z,20.82
2022-09-05T07:57:01.482Z,20.98
2022-09-05T07:57:15.540Z,20.84
2022-09-05T07:59:35.039Z,20.68
2022-09-05T08:02:06.517Z,21.37
2022-09-05T08:04:35.828Z,21.02
2022-09-05T08:07:48.309Z,21.30
2022-09-05T08:10:08.904Z,21.19
2022-09-05T08:13:22.838Z,21.42
2022-09-05T08:16:00.727Z,21.95
2022-09-05T08:18:23.867Z,21.63
2022-09-05T08:20:55.094Z,21.54
2022-09-05T08:23:42.315Z,22.08
2022-09-05T08:26:12.367Z,22.31
2022-09-05T08:28:54.043Z,22.16
2022-09-05T08:31:26.544Z,21.76
2022-09-05T08:33:59.798Z,22.54
2022-09-05T08:36:33.096Z,22.28
2022-09-05T08:39:06.408Z,22.68
2022-09-05T08:41:51.038Z,22.68
2022-09-05T08:46:42.801Z,22.97
2022-09-05T08:47:26.280Z,23.08
2022-09-05T08:50:17.378Z,22.78
2022-09-05T08:52:56.231Z,23.04
2022-09-05T08:55:34.256Z,23.24
2022-09-05T08:58:29.810Z,23.49
2022-09-05T09:01:07.798Z,23.78
2022-09-05T09:03:53.605Z,23.90
2022-09-05T09:06:39.419Z,23.73
2022-09-05T09:09:14.092Z,24.06
2022-09-05T09:11:44.428Z,24.30
2022-09-05T09:14:49.887Z,24.35
2022-09-05T09:17:28.361Z,24.17
2022-09-05T09:20:29.844Z,24.66
2022-09-05T09:23:03.260Z,24.71
2022-09-05T09:25:37.333Z,24.74
2022-09-05T09:28:49.405Z,24.53
2022-09-05T09:31:22.811Z,24.74
2022-09-05T09:33:59.824Z,25.38
2022-09-05T09:36:57.543Z,24.64
2022-09-05T09:39:39.596Z,25.32
2022-09-05T09:42:38.638Z,25.69
2022-09-05T09:45:28.490Z,25.65
2022-09-05T09:48:34.354Z,26.00
2022-09-05T09:51:20.015Z,26.25
2022-09-05T09:54:01.845Z,26.44
2022-09-05T09:57:07.798Z,27.41
2022-09-05T10:00:09.701Z,28.26
2022-09-05T10:06:50.958Z,29.02
2022-09-05T10:10:45.324Z,28.99
2022-09-05T10:10:58.570Z,30.13
2022-09-05T10:13:08.260Z,30.76
2022-09-05T10:15:52.700Z,31.87
2022-09-05T10:18:55.106Z,32.40
2022-09-05T10:25:19.287Z,32.79
2022-09-05T10:28:15.012Z,33.06
2022-09-05T10:32:10.324Z,33.97
2022-09-05T10:35:17.775Z,33.66
2022-09-05T10:36:35.024Z,34.17
2022-09-05T10:39:22.545Z,34.36
2022-09-05T10:41:57.216Z,35.19
2022-09-05T10:44:45.714Z,35.13
2022-09-05T10:47:33.065Z,35.67
2022-09-05T10:50:15.016Z,35.77
2022-09-05T10:53:26.592Z,36.09
2022-09-05T10:56:09.618Z,36.17
2022-09-05T11:02:15.749Z,35.82
2022-09-05T11:02:27.234Z,35.82
2022-09-05T11:04:49.566Z,36.70
2022-09-05T11:07:45.693Z,36.10
2022-09-05T11:10:33.184Z,37.19
2022-09-05T11:13:16.163Z,36.97
2022-09-05T11:16:16.709Z,38.00
2022-09-05T11:19:03.991Z,37.31
2022-09-05T11:22:13.797Z,36.79
2022-09-05T11:24:56.970Z,36.73
2022-09-05T11:27:35.242Z,36.18
2022-09-05T11:30:09.243Z,35.39
2022-09-05T11:37:04.244Z,34.57
2022-09-05T11:40:02.214Z,35.35
2022-09-05T11:40:28.520Z,35.23
2022-09-05T11:43:11.786Z,34.52
2022-09-05T11:46:08.931Z,34.10
2022-09-05T11:49:14.414Z,33.53
2022-09-05T11:52:37.370Z,34.34
2022-09-05T11:55:26.144Z,33.71
2022-09-05T11:58:43.698Z,35.01
2022-09-05T12:01:41.114Z,35.12
2022-09-05T12:04:28.975Z,34.58
2022-09-05T12:07:31.820Z,35.09
2022-09-05T12:10:46.752Z,34.51
2022-09-05T12:13:24.543Z,33.90
2022-09-05T12:16:07.561Z,33.83
2022-09-05T12:18:44.673Z,33.65
2022-09-05T12:21:31.675Z,34.43
2022-09-05T12:25:15.385Z,34.27
2022-09-05T12:27:38.397Z,34.94
2022-09-05T12:30:15.423Z,35.51
2022-09-05T12:35:50.031Z,35.90
2022-09-05T12:40:44.519Z,35.60
2022-09-05T12:40:55.473Z,35.94
2022-09-05T12:42:51.165Z,35.89
2022-09-05T12:45:47.623Z,36.12
2022-09-05T12:48:43.730Z,35.97
2022-09-05T12:51:45.334Z,35.38
2022-09-05T12:54:33.477Z,34.34
2022-09-05T13:01:12.773Z,35.26
2022-09-05T13:03:08.336Z,34.93
2022-09-05T13:03:37.832Z,34.32
2022-09-05T13:06:04.927Z,33.72
2022-09-05T13:08:46.985Z,33.75
2022-09-05T13:14:52.311Z,33.45
2022-09-05T13:17:17.373Z,34.10
2022-09-05T13:19:48.539Z,33.31
2022-09-05T13:22:23.814Z,33.97
2022-09-05T13:25:01.352Z,33.41
2022-09-05T13:27:37.414Z,33.70
2022-09-05T13:32:43.502Z,34.29
2022-09-05T13:38:01.343Z,34.19
2022-09-05T13:38:07.303Z,33.89
2022-09-05T13:42:29.357Z,34.61
2022-09-05T13:45:08.310Z,35.27
2022-09-05T13:48:07.361Z,35.62
2022-09-05T13:51:12.195Z,35.94
2022-09-05T13:53:53.829Z,35.64
2022-09-05T13:56:53.428Z,35.10
2022-09-05T14:09:38.524Z,32.91
2022-09-05T14:12:33.882Z,32.68
2022-09-05T14:25:45.330Z,33.58
2022-09-05T14:28:56.148Z,33.79
2022-09-05T14:37:37.006Z,33.80
2022-09-05T14:37:40.625Z,34.71
2022-09-05T14:48:33.017Z,34.50
2022-09-05T14:52:02.891Z,34.38
2022-09-05T14:55:23.858Z,34.34
2022-09-05T15:02:51.031Z,34.73
2022-09-05T15:07:36.215Z,35.50
2022-09-05T15:12:18.559Z,35.55
2022-09-05T15:13:42.894Z,35.01
2022-09-05T15:16:25.065Z,33.94
2022-09-05T15:22:33.423Z,33.59
2022-09-05T15:25:17.087Z,32.68
2022-09-05T15:28:26.276Z,32.20
2022-09-05T15:31:33.942Z,32.47
2022-09-05T15:34:24.380Z,32.59
2022-09-05T15:37:09.012Z,32.20
2022-09-05T15:46:17.142Z,30.71
2022-09-05T15:48:56.900Z,31.52
2022-09-05T15:54:53.804Z,30.85
2022-09-05T15:58:27.297Z,30.17
2022-09-05T16:01:30.545Z,31.31
2022-09-05T16:10:41.146Z,30.63
2022-09-05T16:10:44.978Z,30.07
2022-09-05T16:12:45.036Z,31.06
2022-09-05T16:19:20.768Z,30.29
2022-09-05T16:23:14.097Z,29.77
2022-09-05T16:23:23.590Z,29.71
2022-09-05T16:24:58.630Z,30.00
2022-09-05T16:27:47.582Z,29.69
2022-09-05T16:30:26.482Z,30.34
2022-09-05T16:33:02.546Z,30.35
2022-09-05T16:35:42.917Z,30.38
2022-09-05T16:38:25.946Z,29.89
2022-09-05T16:41:21.029Z,29.47
2022-09-05T16:44:05.180Z,29.18
2022-09-05T16:46:43.060Z,29.95
2022-09-05T16:49:43.020Z,29.46
2022-09-05T16:52:35.709Z,30.02
2022-09-05T16:55:18.409Z,29.49
2022-09-05T16:58:14.244Z,28.87
2022-09-05T17:01:00.488Z,28.96
2022-09-05T17:03:37.596Z,29.74
2022-09-05T17:06:25.948Z,28.59
2022-09-05T17:09:30.705Z,29.10
2022-09-05T17:12:19.062Z,28.29
2022-09-05T17:15:01.045Z,28.47
2022-09-05T17:18:19.790Z,28.49
2022-09-05T17:20:36.080Z,27.97
2022-09-05T17:27:19.925Z,28.59
2022-09-05T17:29:31.431Z,27.48
2022-09-05T17:31:23.752Z,27.48
2022-09-05T17:32:56.863Z,27.46
2022-09-05T17:36:08.439Z,27.12
2022-09-05T17:39:07.514Z,27.61
2022-09-05T17:42:08.758Z,27.90
2022-09-05T17:44:48.638Z,27.82
2022-09-05T17:47:35.894Z,27.63
2022-09-05T17:50:57.268Z,27.23
2022-09-05T17:53:38.889Z,26.53
2022-09-05T17:56:27.859Z,26.58
2022-09-05T17:59:09.652Z,26.48
2022-09-05T18:01:48.552Z,27.08
2022-09-05T18:04:49.915Z,27.32
2022-09-05T18:07:48.363Z,27.15
2022-09-05T18:10:27.836Z,26.93
2022-09-05T18:13:32.688Z,26.74
2022-09-05T18:16:12.037Z,26.05
2022-09-05T18:19:33.241Z,26.32
2022-09-05T18:21:51.737Z,25.90
2022-09-05T18:28:03.642Z,26.05
2022-09-05T18:30:38.301Z,25.86
2022-09-05T18:33:53.273Z,26.66
2022-09-05T18:36:34.101Z,26.56
2022-09-05T18:39:40.518Z,26.18
2022-09-05T18:42:26.230Z,26.22
2022-09-05T18:45:14.876Z,26.44
2022-09-05T18:47:59.493Z,25.79
2022-09-05T18:50:34.397Z,25.97
2022-09-05T18:53:09.349Z,25.30
2022-09-05T18:56:12.706Z,26.19
2022-09-05T18:58:51.614Z,25.43
2022-09-05T19:01:28.557Z,25.30
2022-09-05T19:04:01.159Z,25.45
2022-09-05T19:06:45.126Z,25.47
2022-09-05T19:09:26.704Z,24.95
2022-09-05T19:12:31.623Z,25.72
2022-09-05T19:14:55.966Z,25.73
2022-09-05T19:17:36.708Z,25.49
2022-09-05T19:20:47.328Z,24.81
2022-09-05T19:23:22.956Z,24.78
2022-09-05T19:25:54.405Z,25.41
2022-09-05T19:36:57.052Z,24.55
2022-09-05T19:36:59.133Z,25.36
2022-09-05T19:37:12.155Z,24.38
2022-09-05T19:42:08.160Z,25.19
2022-09-05T19:47:35.379Z,25.04
2022-09-05T19:47:37.190Z,24.19
2022-09-05T19:48:35.822Z,24.57
2022-09-05T19:51:16.075Z,24.83
2022-09-05T19:54:04.930Z,25.08
2022-09-05T19:57:07.869Z,25.23
2022-09-05T19:59:45.186Z,24.07
2022-09-05T20:02:46.469Z,25.07
2022-09-05T20:05:50.948Z,24.10
2022-09-05T20:08:32.091Z,24.01
2022-09-05T20:11:37.434Z,24.96
2022-09-05T20:14:46.814Z,23.74
2022-09-05T20:17:43.100Z,24.50
2022-09-05T20:20:17.428Z,24.85
2022-09-05T20:22:53.691Z,24.44
2022-09-05T20:25:35.202Z,23.55
2022-09-05T20:28:07.166Z,24.60
2022-09-05T20:30:43.229Z,23.88
2022-09-05T20:33:19.407Z,24.01
2022-09-05T20:40:16.585Z,24.60
2022-09-05T20:43:16.042Z,24.21
2022-09-05T20:43:32.029Z,24.13
2022-09-05T20:44:22.712Z,24.47
2022-09-05T20:51:27.942Z,23.83
2022-09-05T20:54:16.034Z,23.79
2022-09-05T20:54:20.342Z,24.39
2022-09-05T20:55:39.731Z,23.78
2022-09-05T20:58:13.087Z,24.12
2022-09-05T21:01:15.723Z,23.55
2022-09-05T21:03:57.782Z,23.51
2022-09-05T21:06:34.395Z,23.79
2022-09-05T21:09:24.386Z,24.00
2022-09-05T21:11:56.366Z,23.53
2022-09-05T21:14:29.679Z,23.34
2022-09-05T21:17:14.791Z,23.68
2022-09-05T21:20:01.175Z,23.75
2022-09-05T21:22:38.212Z,23.65
2022-09-05T21:25:23.941Z,23.34
2022-09-05T21:28:03.262Z,23.76
2022-09-05T21:30:34.730Z,23.24
2022-09-05T21:33:07.110Z,22.83
2022-09-05T21:35:44.468Z,23.47
2022-09-05T21:38:13.821Z,23.50
2022-09-05T21:40:41.449Z,23.41
2022-09-05T21:47:34.398Z,23.75
2022-09-05T21:47:43.873Z,23.58
2022-09-05T21:48:56.639Z,23.85
2022-09-05T21:51:25.310Z,23.17
2022-09-05T21:55:10.710Z,23.18
2022-09-05T21:59:21.157Z,23.77
2022-09-05T21:59:45.414Z,23.66
2022-09-05T22:02:13.648Z,23.55
2022-09-05T22:04:43.272Z,23.42
2022-09-05T22:07:12.113Z,23.72
2022-09-05T22:09:39.180Z,23.68
2022-09-05T22:12:14.560Z,23.68
2022-09-05T22:14:53.150Z,23.20
2022-09-05T22:17:22.955Z,23.66
2022-09-05T22:19:49.633Z,23.07
2022-09-05T22:22:20.155Z,23.59
2022-09-05T22:24:52.460Z,23.66
2022-09-05T22:27:21.093Z,23.12
2022-09-05T22:29:50.674Z,23.48
2022-09-05T22:32:18.994Z,23.46
2022-09-05T22:35:15.762Z,22.96
2022-09-05T22:37:59.313Z,23.48
2022-09-05T22:40:27.719Z,23.45
2022-09-05T22:42:55.648Z,23.08
2022-09-05T22:45:22.331Z,23.50
2022-09-05T22:47:49.161Z,23.39
2022-09-05T22:50:16.025Z,23.30
2022-09-05T22:52:46.732Z,23.45
2022-09-05T22:55:15.456Z,23.44
2022-09-05T22:57:43.764Z,23.15
2022-09-05T23:00:11.656Z,22.68
2022-09-05T23:02:38.604Z,22.72
2022-09-05T23:05:06.976Z,23.27
2022-09-05T23:07:33.754Z,23.13
2022-09-05T23:10:00.626Z,23.33
2022-09-05T23:12:28.822Z,23.32
2022-09-05T23:14:55.722Z,23.27
2022-09-05T23:17:24.084Z,23.26
2022-09-05T23:19:50.778Z,23.02
2022-09-05T23:22:26.145Z,23.14
2022-09-05T23:24:54.161Z,22.00
2022-09-05T23:27:20.890Z,22.98
2022-09-05T23:29:49.178Z,23.05
2022-09-05T23:32:15.960Z,23.13
2022-09-05T23:34:42.702Z,22.77
2022-09-05T23:37:09.546Z,22.77
2022-09-05T23:39:36.438Z,22.53
2022-09-05T23:42:03.679Z,23.09
2022-09-05T23:44:30.394Z,22.16
2022-09-05T23:47:00.321Z,22.39
2022-09-05T23:49:27.071Z,23.00
2022-09-05T23:51:56.766Z,22.27
2022-09-05T23:54:23.640Z,22.22
2022-09-05T23:56:50.469Z,22.92
2022-09-05T23:59:17.177Z,22.54
